Vliegveldwaarnemingen Nederland - (AUTO) METAR

Luchtvaartmeteorologische informatie voor operationeel gebruik en vluchtvoorbereiding is beschikbaar op www.luchtvaartmeteo.nl.

ZCZC
SA260525 EHKD     DE KOOY/DE KOOY   NLD   1 m.
METAR EHKD 260525Z AUTO 14007KT 9999 OVC220 14/12 Q1015
BLU NOSIG=

ZCZC
SA260525 EHFD     F3-FB-1   NLD   50 m.
METAR EHFD 260525Z AUTO 17012KT 9999 FEW009/// BKN010/// BKN013///
14/11 Q1016=

ZCZC
SA260525 EHAM     AMSTERDAM/SCHIPHOL   NLD   -3 m.
METAR EHAM 260525Z 13008KT CAVOK 15/13 Q1015 NOSIG=

ZCZC
SA260525 EHVL     VLIELAND   NLD   10 m.
METAR EHVL 260525Z AUTO 13010KT 9999 OVC230 16/13 Q1015
BLACKBLU=

ZCZC
SA260525 EHJR     K13-A   NLD   37 m.
METAR EHJR 260525Z AUTO 14019KT //// // ///////// 14/12 Q1014 RE//
W13/H7=

ZCZC
SA260525 EHLE     LELYSTAD/LELYSTAD   NLD   -3 m.
METAR EHLE 260525Z AUTO 12005KT 9999 NSC 14/13 Q1016 NOSIG=

ZCZC
SA260525 EHLW     LEEUWARDEN/LEEUWARDEN   NLD   1 m.
METAR EHLW 260525Z AUTO 13006KT 100V160 9000 BR OVC250 15/13 Q1016 BLU=

ZCZC
SA260525 EHDL     ARNHEM/DEELEN   NLD   48 m.
METAR EHDL 260525Z AUTO 12004KT 050V200 5000 BR OVC220 14/13 Q1016 WHT=

ZCZC
SA260525 EHGG     GRONINGEN/EELDE   NLD   5 m.
METAR EHGG 260525Z AUTO 10004KT 070V130 3200 BR NCD 13/12 Q1017 BECMG
CAVOK=

ZCZC
SA260525 EHSC     LICHTEILAND GOEREE   NLD   22 m.
METAR EHSC 260525Z AUTO 13015KT 9999 ///////// 15/12 Q1014 W14/H5=

ZCZC
SA260525 EHSA     EURO PLATFORM   NLD   19 m.
METAR EHSA 260525Z AUTO 12016KT 9999 ///////// 14/13 Q1013 W13/H6=

ZCZC
SA260525 EHWO     WOENSDRECHT/WOENSDRECHT   NLD   19 m.
METAR EHWO 260525Z NIL=

ZCZC
SA260525 EHRD     ROTTERDAM/THE HAGUE AIRPORT   NLD   -5 m.
METAR EHRD 260525Z AUTO 11007KT 080V140 9999 NSC 15/12 Q1014 NOSIG=

ZCZC
SA260525 EHGR     GILZE-RIJEN/GILZE-RIJEN   NLD   14 m.
METAR EHGR 260525Z AUTO 11008KT 090V150 9000 BR OVC160 14/13 Q1015 BLU=

ZCZC
SA260525 EHEH     EINDHOVEN/EINDHOVEN   NLD   22 m.
METAR EHEH 260525Z AUTO 12005KT 080V200 9999 OVC180 15/13 Q1015
BLU NOSIG=

ZCZC
SA260525 EHVK     VOLKEL/VOLKEL   NLD   21 m.
METAR EHVK 260525Z AUTO 10004KT 060V140 8000 BR OVC210 14/13 Q1016 BLU=

ZCZC
SA260525 EHBK     MAASTRICHT/MAASTRICHT-AACHEN   NLD   114 m.
METAR EHBK 260525Z AUTO 15004KT 110V170 9999 NSC 16/12 Q1015 NOSIG=

ZCZC
SA260525 EHKV     K14-FA-1C   NLD   41 m.
METAR EHKV 260525Z AUTO 14017KT 9999 NSC 14/12 Q1014=

ZCZC
SA260525 EHMG     L9-FF-1   NLD   44 m.
METAR EHMG 260525Z AUTO VRB07KT 9000 FEW030 15/14 Q1017=

ZCZC
SA260525 EHMA     AWG-1   NLD   40 m.
METAR EHMA 260525Z AUTO 18013KT 9000 FEW000 13/13 Q1016=

ZCZC
SA260525 EHDV     D15-FA-1   NLD   42 m.
METAR EHDV 260525Z AUTO 15017KT 9999 NSC 13/11 Q1014=

ZCZC
SA260525 EHAK     A12-CPP   NLD   48 m.
METAR EHAK 260525Z AUTO 16019KT 9999 BKN012/// OVC014/// 14/11 Q1015=

ZCZC
SA260525 EHJA     J6-A   NLD   45 m.
METAR EHJA 260525Z AUTO 13019KT 050V170 9999 NSC 13/12 Q1014=

ZCZC
SA260525 EHPG     P11-B   NLD   41 m.
METAR EHPG 260525Z AUTO 13020KT 9999 NSC 14/13 Q1014=

ZCZC
SA260525 EHHW     BUITENGAATS/BG-OHVS2      42 m.
METAR EHHW 260525Z AUTO 16009KT 9000 FEW007/// 15/13 Q////=

ZCZC
SA260525 EHFS     VLISSINGEN AWS   NLD   8 m.
METAR EHFS 260525Z AUTO 11012KT 080V150 9999 NSC 15/13 Q1013=

ZCZC
SA260525 EHSG     BSA   NLD   43 m.
METAR EHSG 260525Z AUTO 20012KT //// // FEW019/// SCT044/// 15/12
Q1014 RE//=

26/05/2024 07.45 uur LT